createdAt,value
2022-08-08T00:02:33.152Z,1.70
2022-08-08T00:05:09.835Z,2.20
2022-08-08T00:08:02.413Z,1.85
2022-08-08T00:10:50.728Z,1.70
2022-08-08T00:14:16.780Z,2.12
2022-08-08T00:17:22.853Z,1.70
2022-08-08T00:20:02.590Z,1.50
2022-08-08T00:22:52.694Z,1.52
2022-08-08T00:25:44.831Z,1.98
2022-08-08T00:28:34.931Z,1.55
2022-08-08T00:32:16.201Z,1.60
2022-08-08T00:35:08.802Z,1.15
2022-08-08T00:38:06.318Z,1.70
2022-08-08T00:41:14.678Z,1.33
2022-08-08T00:44:01.370Z,1.55
2022-08-08T00:47:00.254Z,1.87
2022-08-08T00:49:33.877Z,1.45
2022-08-08T00:52:23.260Z,1.40
2022-08-08T00:55:10.703Z,1.83
2022-08-08T00:58:30.564Z,1.80
2022-08-08T01:01:37.800Z,1.50
2022-08-08T01:04:11.240Z,1.62
2022-08-08T01:07:10.632Z,1.83
2022-08-08T01:09:54.638Z,1.90
2022-08-08T01:12:54.239Z,1.60
2022-08-08T01:15:54.421Z,1.77
2022-08-08T01:18:52.496Z,1.75
2022-08-08T01:22:10.101Z,1.50
2022-08-08T01:24:58.256Z,1.70
2022-08-08T01:28:03.912Z,1.45
2022-08-08T01:30:46.231Z,1.77
2022-08-08T01:34:05.082Z,1.60
2022-08-08T01:37:05.874Z,1.62
2022-08-08T01:40:02.852Z,1.80
2022-08-08T01:42:38.220Z,1.73
2022-08-08T01:45:29.588Z,2.20
2022-08-08T01:48:16.847Z,1.83
2022-08-08T01:51:06.042Z,1.83
2022-08-08T01:55:19.458Z,1.67
2022-08-08T01:58:10.885Z,1.77
2022-08-08T02:00:57.371Z,1.80
2022-08-08T02:03:58.347Z,1.70
2022-08-08T02:06:57.757Z,1.60
2022-08-08T02:10:02.598Z,1.70
2022-08-08T02:12:53.510Z,1.92
2022-08-08T02:15:38.299Z,1.85
2022-08-08T02:18:17.749Z,1.45
2022-08-08T02:21:29.937Z,1.83
2022-08-08T02:24:09.280Z,1.87
2022-08-08T02:27:06.218Z,1.45
2022-08-08T02:30:06.498Z,1.58
2022-08-08T02:36:03.693Z,1.55
2022-08-08T02:39:00.858Z,1.50
2022-08-08T02:42:05.887Z,1.62
2022-08-08T02:44:56.451Z,1.80
2022-08-08T02:47:47.172Z,1.42
2022-08-08T02:50:32.394Z,2.05
2022-08-08T02:53:18.935Z,1.80
2022-08-08T02:56:35.021Z,1.62
2022-08-08T02:59:58.236Z,2.10
2022-08-08T03:03:15.979Z,1.42
2022-08-08T03:06:34.837Z,1.60
2022-08-08T03:09:33.098Z,1.67
2022-08-08T03:13:01.644Z,1.98
2022-08-08T03:16:00.783Z,1.80
2022-08-08T03:19:17.881Z,1.90
2022-08-08T03:21:58.388Z,2.00
2022-08-08T03:24:28.871Z,1.70
2022-08-08T03:27:10.391Z,1.75
2022-08-08T03:29:54.658Z,1.25
2022-08-08T03:32:42.365Z,1.60
2022-08-08T03:35:22.899Z,1.85
2022-08-08T03:38:53.437Z,1.60
2022-08-08T03:40:43.513Z,1.90
2022-08-08T03:43:23.132Z,1.37
2022-08-08T03:46:03.517Z,1.75
2022-08-08T03:51:39.995Z,1.70
2022-08-08T03:54:09.974Z,1.60
2022-08-08T03:56:49.590Z,1.75
2022-08-08T03:59:22.817Z,1.67
2022-08-08T04:02:31.482Z,1.75
2022-08-08T04:04:42.798Z,1.77
2022-08-08T04:07:16.301Z,1.95
2022-08-08T04:10:00.612Z,1.77
2022-08-08T04:12:36.598Z,1.70
2022-08-08T04:15:05.508Z,2.00
2022-08-08T04:17:58.226Z,2.87
2022-08-08T04:20:28.599Z,1.90
2022-08-08T04:22:58.211Z,2.10
2022-08-08T04:25:30.234Z,1.83
2022-08-08T04:28:37.197Z,1.92
2022-08-08T04:30:55.189Z,1.52
2022-08-08T04:33:28.680Z,2.00
2022-08-08T04:36:12.609Z,2.10
2022-08-08T04:38:44.240Z,1.83
2022-08-08T04:41:17.888Z,2.28
2022-08-08T04:43:57.096Z,2.35
2022-08-08T04:46:31.077Z,2.22
2022-08-08T04:48:59.243Z,2.53
2022-08-08T04:51:48.534Z,2.05
2022-08-08T04:54:40.136Z,2.08
2022-08-08T04:57:09.750Z,2.33
2022-08-08T04:59:41.878Z,2.60
2022-08-08T05:02:14.593Z,2.50
2022-08-08T05:04:45.168Z,2.17
2022-08-08T05:07:16.492Z,2.80
2022-08-08T05:09:44.125Z,2.40
2022-08-08T05:12:20.470Z,2.40
2022-08-08T05:14:52.267Z,2.33
2022-08-08T05:17:21.637Z,2.50
2022-08-08T05:20:09.196Z,2.28
2022-08-08T05:22:38.386Z,2.70
2022-08-08T05:25:07.343Z,2.97
2022-08-08T05:27:41.385Z,2.87
2022-08-08T05:30:12.737Z,2.58
2022-08-08T05:32:41.544Z,2.80
2022-08-08T05:35:14.548Z,3.22
2022-08-08T05:37:52.227Z,3.35
2022-08-08T05:40:28.095Z,3.10
2022-08-08T05:43:38.241Z,3.17
2022-08-08T05:46:04.053Z,4.65
2022-08-08T05:48:37.800Z,4.50
2022-08-08T05:51:14.833Z,2.92
2022-08-08T05:54:25.167Z,3.10
2022-08-08T05:56:41.924Z,3.65
2022-08-08T05:59:58.684Z,3.22
2022-08-08T06:02:40.881Z,2.90
2022-08-08T06:05:35.099Z,3.30
2022-08-08T06:08:10.018Z,3.35
2022-08-08T06:10:58.384Z,3.08
2022-08-08T06:13:36.481Z,3.37
2022-08-08T06:16:19.221Z,4.50
2022-08-08T06:18:54.517Z,4.57
2022-08-08T06:21:32.696Z,3.92
2022-08-08T06:24:14.021Z,4.07
2022-08-08T06:26:58.162Z,4.62
2022-08-08T06:30:00.382Z,3.67
2022-08-08T06:32:30.196Z,3.75
2022-08-08T06:36:04.621Z,3.28
2022-08-08T06:37:57.997Z,3.00
2022-08-08T06:40:29.851Z,2.95
2022-08-08T06:43:09.495Z,2.97
2022-08-08T06:45:39.288Z,3.17
2022-08-08T06:48:08.597Z,3.28
2022-08-08T06:50:39.388Z,2.90
2022-08-08T06:53:10.137Z,3.00
2022-08-08T06:55:47.400Z,3.15
2022-08-08T06:58:33.067Z,2.22
2022-08-08T07:01:24.563Z,2.42
2022-08-08T07:04:37.161Z,2.53
2022-08-08T07:06:57.397Z,2.03
2022-08-08T07:09:45.381Z,2.33
2022-08-08T07:12:42.864Z,2.20
2022-08-08T07:15:23.474Z,2.40
2022-08-08T07:18:36.097Z,2.20
2022-08-08T07:20:57.403Z,1.90
2022-08-08T07:24:01.254Z,2.03
2022-08-08T07:26:35.240Z,3.17
2022-08-08T07:29:11.533Z,2.10
2022-08-08T07:31:40.702Z,2.28
2022-08-08T07:34:10.486Z,2.42
2022-08-08T07:36:50.439Z,2.40
2022-08-08T07:39:29.746Z,2.00
2022-08-08T07:42:13.457Z,1.95
2022-08-08T07:44:47.963Z,2.22
2022-08-08T07:47:29.165Z,1.70
2022-08-08T07:50:08.336Z,2.47
2022-08-08T07:52:37.025Z,1.80
2022-08-08T07:55:29.325Z,2.00
2022-08-08T07:58:08.407Z,2.03
2022-08-08T08:00:45.581Z,2.10
2022-08-08T08:03:41.222Z,2.03
2022-08-08T08:06:14.244Z,2.03
2022-08-08T08:08:55.282Z,1.90
2022-08-08T08:11:33.671Z,2.20
2022-08-08T08:14:09.788Z,2.22
2022-08-08T08:16:41.102Z,2.15
2022-08-08T08:19:12.630Z,2.17
2022-08-08T08:21:52.501Z,1.98
2022-08-08T08:24:30.993Z,1.95
2022-08-08T08:27:02.942Z,1.92
2022-08-08T08:29:31.881Z,2.40
2022-08-08T08:32:05.728Z,1.90
2022-08-08T08:34:34.568Z,2.00
2022-08-08T08:37:07.856Z,1.95
2022-08-08T08:40:00.336Z,1.77
2022-08-08T08:42:32.077Z,1.87
2022-08-08T08:45:21.914Z,1.98
2022-08-08T08:47:53.985Z,2.03
2022-08-08T08:50:32.472Z,1.95
2022-08-08T08:53:27.996Z,2.80
2022-08-08T08:56:02.082Z,2.00
2022-08-08T08:58:37.635Z,2.35
2022-08-08T09:01:09.806Z,1.85
2022-08-08T09:03:46.029Z,1.90
2022-08-08T09:06:28.277Z,1.87
2022-08-08T09:09:07.229Z,2.25
2022-08-08T09:12:01.756Z,2.42
2022-08-08T09:14:34.686Z,2.85
2022-08-08T09:17:11.620Z,2.20
2022-08-08T09:21:57.969Z,3.15
2022-08-08T09:22:31.432Z,2.50
2022-08-08T09:24:59.441Z,2.25
2022-08-08T09:27:55.945Z,2.90
2022-08-08T09:30:17.717Z,2.55
2022-08-08T09:33:12.495Z,2.90
2022-08-08T09:35:50.273Z,2.40
2022-08-08T09:38:35.548Z,2.67
2022-08-08T09:42:15.203Z,2.78
2022-08-08T09:44:40.800Z,2.85
2022-08-08T09:48:02.661Z,2.60
2022-08-08T09:49:58.887Z,2.85
2022-08-08T09:52:56.571Z,2.80
2022-08-08T09:55:51.398Z,2.50
2022-08-08T09:58:25.728Z,2.10
2022-08-08T10:01:01.758Z,2.53
2022-08-08T10:03:33.160Z,3.15
2022-08-08T10:06:18.310Z,2.55
2022-08-08T10:08:47.159Z,2.20
2022-08-08T10:12:25.894Z,3.17
2022-08-08T10:14:28.540Z,2.75
2022-08-08T10:16:59.477Z,2.72
2022-08-08T10:19:57.547Z,2.85
2022-08-08T10:22:27.461Z,2.62
2022-08-08T10:25:01.320Z,2.75
2022-08-08T10:27:34.583Z,2.65
2022-08-08T10:30:05.350Z,2.75
2022-08-08T10:32:37.491Z,2.35
2022-08-08T10:36:01.974Z,2.83
2022-08-08T10:38:05.227Z,2.62
2022-08-08T10:40:33.501Z,2.58
2022-08-08T10:43:03.320Z,2.78
2022-08-08T10:45:56.275Z,3.08
2022-08-08T10:48:38.733Z,3.33
2022-08-08T10:51:26.438Z,3.05
2022-08-08T10:54:00.145Z,3.20
2022-08-08T10:56:34.663Z,3.22
2022-08-08T10:59:12.249Z,3.30
2022-08-08T11:01:54.574Z,3.30
2022-08-08T11:04:29.420Z,3.47
2022-08-08T11:07:07.072Z,3.50
2022-08-08T11:09:35.359Z,3.80
2022-08-08T11:12:12.532Z,3.62
2022-08-08T11:14:51.525Z,3.60
2022-08-08T11:18:00.241Z,3.47
2022-08-08T11:20:13.388Z,3.62
2022-08-08T11:22:41.761Z,4.10
2022-08-08T11:25:14.383Z,3.95
2022-08-08T11:27:47.873Z,4.12
2022-08-08T11:30:20.543Z,3.87
2022-08-08T11:32:55.254Z,3.60
2022-08-08T11:35:38.643Z,3.92
2022-08-08T11:38:36.711Z,3.72
2022-08-08T11:41:01.158Z,4.57
2022-08-08T11:43:39.605Z,4.20
2022-08-08T11:46:13.546Z,4.90
2022-08-08T11:48:47.091Z,4.60
2022-08-08T11:51:38.768Z,5.10
2022-08-08T11:54:27.308Z,4.55
2022-08-08T11:56:56.506Z,5.40
2022-08-08T11:59:58.654Z,5.43
2022-08-08T12:02:32.340Z,4.37
2022-08-08T12:05:22.883Z,4.82
2022-08-08T12:07:56.031Z,4.47
2022-08-08T12:10:26.564Z,4.72
2022-08-08T12:13:09.734Z,4.07
2022-08-08T12:15:41.975Z,4.55
2022-08-08T12:18:14.451Z,4.32
2022-08-08T12:20:44.036Z,4.00
2022-08-08T12:23:30.203Z,3.72
2022-08-08T12:26:09.975Z,3.50
2022-08-08T12:28:57.183Z,4.05
2022-08-08T12:31:39.121Z,3.53
2022-08-08T12:34:57.523Z,3.78
2022-08-08T12:37:40.674Z,3.70
2022-08-08T12:40:22.624Z,3.33
2022-08-08T12:42:52.873Z,3.65
2022-08-08T12:45:58.955Z,3.65
2022-08-08T12:48:37.448Z,3.72
2022-08-08T12:51:10.866Z,3.58
2022-08-08T12:54:01.557Z,4.15
2022-08-08T12:56:34.814Z,3.55
2022-08-08T12:59:16.248Z,3.87
2022-08-08T13:02:00.096Z,3.60
2022-08-08T13:04:30.061Z,3.37
2022-08-08T13:07:01.271Z,3.85
2022-08-08T13:10:10.680Z,3.10
2022-08-08T13:12:47.146Z,3.53
2022-08-08T13:15:19.566Z,3.33
2022-08-08T13:18:09.227Z,3.12
2022-08-08T13:20:44.812Z,3.40
2022-08-08T13:23:41.711Z,3.10
2022-08-08T13:26:14.780Z,3.30
2022-08-08T13:28:45.716Z,3.08
2022-08-08T13:31:17.156Z,3.37
2022-08-08T13:33:49.876Z,3.28
2022-08-08T13:36:26.041Z,3.00
2022-08-08T13:38:59.258Z,3.30
2022-08-08T13:41:37.778Z,3.40
2022-08-08T13:44:11.549Z,3.42
2022-08-08T13:46:40.017Z,2.85
2022-08-08T13:50:35.492Z,2.80
2022-08-08T13:52:06.861Z,3.12
2022-08-08T13:54:44.034Z,3.03
2022-08-08T13:57:14.499Z,2.70
2022-08-08T13:59:47.985Z,3.03
2022-08-08T14:02:20.878Z,3.20
2022-08-08T14:05:20.582Z,2.95
2022-08-08T14:07:51.977Z,2.62
2022-08-08T14:10:33.066Z,2.65
2022-08-08T14:13:20.997Z,2.97
2022-08-08T14:16:07.981Z,3.03
2022-08-08T14:21:22.723Z,3.40
2022-08-08T14:24:06.898Z,3.90
2022-08-08T14:26:43.258Z,3.58
2022-08-08T14:29:27.977Z,3.60
2022-08-08T14:32:09.007Z,3.85
2022-08-08T14:34:38.789Z,3.97
2022-08-08T14:37:08.218Z,4.18
2022-08-08T14:39:48.671Z,4.70
2022-08-08T14:42:28.316Z,4.40
2022-08-08T14:45:00.953Z,4.62
2022-08-08T14:47:36.360Z,4.65
2022-08-08T14:50:14.878Z,4.10
2022-08-08T14:52:54.493Z,4.43
2022-08-08T14:55:41.163Z,4.20
2022-08-08T14:58:11.817Z,4.50
2022-08-08T15:00:45.160Z,3.78
2022-08-08T15:03:14.931Z,3.62
2022-08-08T15:05:54.185Z,3.72
2022-08-08T15:08:35.433Z,3.28
2022-08-08T15:11:09.437Z,4.00
2022-08-08T15:14:00.921Z,3.47
2022-08-08T15:16:29.476Z,3.80
2022-08-08T15:19:04.102Z,3.67
2022-08-08T15:21:32.357Z,3.87
2022-08-08T15:24:00.775Z,3.70
2022-08-08T15:26:29.577Z,3.75
2022-08-08T15:28:57.610Z,3.70
2022-08-08T15:31:55.801Z,2.90
2022-08-08T15:34:18.432Z,3.20
2022-08-08T15:36:57.669Z,3.50
2022-08-08T15:39:25.983Z,3.70
2022-08-08T15:41:54.869Z,3.60
2022-08-08T15:44:22.456Z,3.67
2022-08-08T15:46:50.587Z,3.87
2022-08-08T15:49:21.085Z,3.95
2022-08-08T15:51:51.913Z,4.22
2022-08-08T15:54:38.346Z,3.72
2022-08-08T15:57:09.455Z,3.67
2022-08-08T16:00:05.177Z,2.90
2022-08-08T16:02:30.788Z,3.20
2022-08-08T16:05:00.446Z,3.45
2022-08-08T16:07:51.880Z,3.00
2022-08-08T16:13:10.367Z,3.10
2022-08-08T16:13:30.889Z,3.00
2022-08-08T16:15:57.715Z,2.65
2022-08-08T16:18:33.001Z,2.67
2022-08-08T16:21:01.247Z,2.53
2022-08-08T16:23:32.329Z,2.80
2022-08-08T16:26:04.384Z,2.40
2022-08-08T16:28:34.920Z,2.45
2022-08-08T16:31:06.362Z,2.78
2022-08-08T16:33:39.377Z,3.37
2022-08-08T16:36:15.695Z,2.50
2022-08-08T16:38:53.921Z,2.60
2022-08-08T16:41:24.294Z,2.92
2022-08-08T16:43:52.360Z,2.47
2022-08-08T16:46:43.004Z,2.58
2022-08-08T16:49:09.332Z,3.10
2022-08-08T16:55:00.529Z,2.70
2022-08-08T16:55:13.926Z,2.70
2022-08-08T16:57:27.955Z,2.53
2022-08-08T17:00:09.624Z,2.75
2022-08-08T17:02:39.734Z,2.83
2022-08-08T17:05:10.200Z,2.42
2022-08-08T17:07:42.240Z,3.03
2022-08-08T17:10:11.733Z,2.70
2022-08-08T17:12:53.119Z,3.25
2022-08-08T17:15:22.998Z,3.40
2022-08-08T17:18:02.321Z,4.95
2022-08-08T17:20:32.520Z,3.08
2022-08-08T17:23:16.215Z,4.03
2022-08-08T17:25:52.665Z,3.87
2022-08-08T17:28:31.540Z,3.85
2022-08-08T17:31:39.075Z,3.95
2022-08-08T17:34:48.157Z,4.07
2022-08-08T17:37:00.857Z,4.57
2022-08-08T17:40:03.703Z,4.05
2022-08-08T17:42:17.971Z,4.68
2022-08-08T17:44:49.089Z,4.90
2022-08-08T17:47:23.858Z,4.87
2022-08-08T17:50:00.996Z,4.37
2022-08-08T17:52:33.408Z,4.80
2022-08-08T17:55:05.734Z,4.78
2022-08-08T17:57:51.491Z,4.60
2022-08-08T18:00:26.211Z,4.22
2022-08-08T18:03:08.740Z,4.30
2022-08-08T18:05:48.888Z,5.15
2022-08-08T18:08:38.396Z,4.25
2022-08-08T18:11:15.437Z,5.00
2022-08-08T18:13:47.173Z,4.47
2022-08-08T18:16:20.335Z,5.25
2022-08-08T18:18:56.284Z,3.37
2022-08-08T18:21:59.921Z,3.95
2022-08-08T18:24:19.756Z,3.80
2022-08-08T18:26:54.828Z,2.95
2022-08-08T18:29:29.450Z,3.25
2022-08-08T18:32:03.670Z,3.17
2022-08-08T18:34:33.536Z,3.95
2022-08-08T18:37:06.470Z,3.00
2022-08-08T18:42:11.598Z,2.97
2022-08-08T18:44:42.409Z,2.95
2022-08-08T18:47:25.738Z,3.17
2022-08-08T18:49:58.947Z,3.08
2022-08-08T18:52:33.953Z,3.70
2022-08-08T18:57:43.421Z,3.83
2022-08-08T19:00:20.475Z,3.62
2022-08-08T19:02:55.774Z,3.40
2022-08-08T19:05:31.861Z,3.45
2022-08-08T19:08:24.841Z,3.78
2022-08-08T19:10:58.613Z,3.45
2022-08-08T19:13:53.048Z,3.67
2022-08-08T19:16:20.380Z,4.20
2022-08-08T19:18:56.036Z,4.60
2022-08-08T19:21:30.839Z,4.37
2022-08-08T19:24:05.568Z,3.60
2022-08-08T19:26:38.041Z,3.75
2022-08-08T19:29:06.249Z,3.75
2022-08-08T19:31:35.386Z,3.87
2022-08-08T19:34:35.838Z,4.22
2022-08-08T19:36:58.597Z,3.83
2022-08-08T19:39:30.914Z,4.10
2022-08-08T19:42:05.138Z,4.32
2022-08-08T19:44:42.821Z,4.20
2022-08-08T19:47:14.830Z,4.43
2022-08-08T19:49:59.863Z,5.00
2022-08-08T19:52:37.187Z,4.15
2022-08-08T19:55:11.114Z,4.22
2022-08-08T19:57:42.557Z,4.70
2022-08-08T20:00:29.320Z,4.25
2022-08-08T20:03:00.374Z,4.93
2022-08-08T20:06:15.561Z,4.45
2022-08-08T20:08:31.072Z,3.78
2022-08-08T20:11:03.154Z,4.72
2022-08-08T20:14:34.754Z,4.30
2022-08-08T20:16:19.139Z,3.78
2022-08-08T20:18:53.275Z,3.80
2022-08-08T20:21:25.815Z,4.70
2022-08-08T20:23:58.155Z,3.95
2022-08-08T20:26:33.310Z,4.37
2022-08-08T20:29:03.266Z,4.10
2022-08-08T20:32:08.256Z,3.62
2022-08-08T20:34:30.629Z,3.45
2022-08-08T20:37:02.529Z,3.53
2022-08-08T20:39:39.375Z,3.40
2022-08-08T20:42:20.601Z,3.78
2022-08-08T20:44:56.963Z,3.17
2022-08-08T20:47:25.546Z,3.50
2022-08-08T20:49:54.313Z,3.10
2022-08-08T20:52:27.648Z,2.55
2022-08-08T20:54:56.614Z,2.97
2022-08-08T20:57:26.865Z,2.60
2022-08-08T20:59:56.293Z,2.53
2022-08-08T21:02:25.677Z,2.78
2022-08-08T21:05:00.824Z,2.75
2022-08-08T21:08:07.711Z,2.60
2022-08-08T21:10:20.701Z,2.75
2022-08-08T21:12:52.787Z,2.90
2022-08-08T21:16:04.126Z,3.33
2022-08-08T21:18:09.755Z,2.30
2022-08-08T21:20:41.987Z,2.47
2022-08-08T21:23:15.870Z,2.70
2022-08-08T21:25:49.195Z,2.75
2022-08-08T21:28:19.472Z,2.00
2022-08-08T21:31:06.104Z,2.30
2022-08-08T21:33:52.776Z,2.12
2022-08-08T21:36:28.502Z,2.12
2022-08-08T21:38:57.554Z,2.37
2022-08-08T21:41:38.269Z,2.72
2022-08-08T21:44:11.616Z,2.47
2022-08-08T21:48:05.107Z,2.75
2022-08-08T21:49:31.597Z,2.92
2022-08-08T21:54:34.185Z,2.45
2022-08-08T21:54:54.956Z,2.80
2022-08-08T21:57:29.229Z,2.45
2022-08-08T22:00:12.423Z,2.70
2022-08-08T22:02:44.278Z,2.60
2022-08-08T22:05:14.919Z,2.80
2022-08-08T22:07:44.254Z,2.62
2022-08-08T22:10:18.215Z,2.70
2022-08-08T22:13:17.604Z,3.20
2022-08-08T22:15:59.238Z,3.15
2022-08-08T22:18:33.357Z,2.03
2022-08-08T22:21:13.740Z,2.70
2022-08-08T22:23:51.578Z,2.70
2022-08-08T22:26:30.878Z,2.92
2022-08-08T22:29:12.883Z,3.45
2022-08-08T22:31:58.635Z,2.78
2022-08-08T22:34:39.496Z,3.28
2022-08-08T22:37:14.944Z,3.05
2022-08-08T22:40:01.046Z,3.00
2022-08-08T22:45:05.344Z,2.90
2022-08-08T22:47:48.903Z,2.75
2022-08-08T22:50:27.252Z,2.58
2022-08-08T22:54:33.909Z,2.20
2022-08-08T22:55:59.266Z,2.62
2022-08-08T22:58:34.698Z,2.95
2022-08-08T23:01:26.761Z,3.53
2022-08-08T23:03:56.425Z,3.08
2022-08-08T23:06:25.327Z,2.70
2022-08-08T23:08:55.427Z,2.10
2022-08-08T23:11:31.438Z,2.75
2022-08-08T23:14:13.092Z,2.80
2022-08-08T23:16:44.018Z,2.80
2022-08-08T23:19:15.350Z,2.83
2022-08-08T23:21:45.674Z,2.60
2022-08-08T23:24:22.740Z,3.30
2022-08-08T23:26:55.389Z,2.40
2022-08-08T23:29:25.564Z,2.70
2022-08-08T23:31:56.440Z,2.67
2022-08-08T23:34:24.432Z,2.40
2022-08-08T23:36:58.183Z,2.40
2022-08-08T23:39:41.458Z,2.70
2022-08-08T23:42:16.576Z,2.05
2022-08-08T23:44:45.200Z,2.45
2022-08-08T23:49:06.164Z,2.60
2022-08-08T23:50:00.992Z,2.50
2022-08-08T23:52:31.325Z,2.62
2022-08-08T23:55:07.335Z,2.60
2022-08-08T23:57:52.102Z,2.62
